sensor_id;sensor_type;location;lat;lon;timestamp;temperature;humidity
10692;DHT22;5396;50.950;6.988;2024-01-15T00:00:40;1.40;99.90
10692;DHT22;5396;50.950;6.988;2024-01-15T00:03:06;1.20;99.90
10692;DHT22;5396;50.950;6.988;2024-01-15T00:05:31;1.20;99.90
10692;DHT22;5396;50.950;6.988;2024-01-15T00:07:57;1.10;99.90
10692;DHT22;5396;50.950;6.988;2024-01-15T00:10:23;1.10;99.90
10692;DHT22;5396;50.950;6.988;2024-01-15T00:12:48;1.00;99.90
10692;DHT22;5396;50.950;6.988;2024-01-15T00:15:14;1.00;99.90
10692;DHT22;5396;50.950;6.988;2024-01-15T00:17:39;1.00;99.90
10692;DHT22;5396;50.950;6.988;2024-01-15T00:20:05;1.00;99.90
10692;DHT22;5396;50.950;6.988;2024-01-15T00:22:30;1.00;99.90
10692;DHT22;5396;50.950;6.988;2024-01-15T00:24:57;1.00;99.90
10692;DHT22;5396;50.950;6.988;2024-01-15T00:27:22;1.00;99.90
10692;DHT22;5396;50.950;6.988;2024-01-15T00:29:49;1.00;99.90
10692;DHT22;5396;50.950;6.988;2024-01-15T00:32:15;1.00;99.90
10692;DHT22;5396;50.950;6.988;2024-01-15T00:34:41;0.90;99.90
10692;DHT22;5396;50.950;6.988;2024-01-15T00:37:06;0.90;99.90
10692;DHT22;5396;50.950;6.988;2024-01-15T00:39:32;0.90;99.90
10692;DHT22;5396;50.950;6.988;2024-01-15T00:41:58;0.80;99.90
10692;DHT22;5396;50.950;6.988;2024-01-15T00:44:23;0.80;99.90
10692;DHT22;5396;50.950;6.988;2024-01-15T00:46:49;0.80;99.90
10692;DHT22;5396;50.950;6.988;2024-01-15T00:49:14;0.80;99.90
10692;DHT22;5396;50.950;6.988;2024-01-15T00:51:40;0.70;99.90
10692;DHT22;5396;50.950;6.988;2024-01-15T00:54:05;0.70;99.90
10692;DHT22;5396;50.950;6.988;2024-01-15T00:56:31;0.70;99.90
10692;DHT22;5396;50.950;6.988;2024-01-15T00:58:56;0.70;99.90
10692;DHT22;5396;50.950;6.988;2024-01-15T01:01:22;0.70;99.90
10692;DHT22;5396;50.950;6.988;2024-01-15T01:03:47;0.70;99.90
10692;DHT22;5396;50.950;6.988;2024-01-15T01:06:13;0.70;99.90
10692;DHT22;5396;50.950;6.988;2024-01-15T01:08:39;0.70;99.90
10692;DHT22;5396;50.950;6.988;2024-01-15T01:11:04;0.80;99.90
10692;DHT22;5396;50.950;6.988;2024-01-15T01:13:32;0.80;99.90
10692;DHT22;5396;50.950;6.988;2024-01-15T01:15:57;0.80;99.90
10692;DHT22;5396;50.950;6.988;2024-01-15T01:18:23;0.80;99.90
10692;DHT22;5396;50.950;6.988;2024-01-15T01:20:48;0.80;99.90
10692;DHT22;5396;50.950;6.988;2024-01-15T01:23:14;0.80;99.90
10692;DHT22;5396;50.950;6.988;2024-01-15T01:25:39;0.80;99.90
10692;DHT22;5396;50.950;6.988;2024-01-15T01:28:05;0.80;99.90
10692;DHT22;5396;50.950;6.988;2024-01-15T01:30:30;0.80;99.90
10692;DHT22;5396;50.950;6.988;2024-01-15T01:32:56;0.80;99.90
10692;DHT22;5396;50.950;6.988;2024-01-15T01:35:22;0.80;99.90
10692;DHT22;5396;50.950;6.988;2024-01-15T01:37:47;0.90;99.90
10692;DHT22;5396;50.950;6.988;2024-01-15T01:40:13;0.80;99.90
10692;DHT22;5396;50.950;6.988;2024-01-15T01:42:38;0.80;99.90
10692;DHT22;5396;50.950;6.988;2024-01-15T01:45:04;0.80;99.90
10692;DHT22;5396;50.950;6.988;2024-01-15T01:47:30;0.80;99.90
10692;DHT22;5396;50.950;6.988;2024-01-15T01:49:55;0.80;99.90
10692;DHT22;5396;50.950;6.988;2024-01-15T01:52:21;0.90;99.90
10692;DHT22;5396;50.950;6.988;2024-01-15T01:54:46;0.90;99.90
10692;DHT22;5396;50.950;6.988;2024-01-15T01:57:12;0.90;99.90
10692;DHT22;5396;50.950;6.988;2024-01-15T01:59:39;0.90;99.90
10692;DHT22;5396;50.950;6.988;2024-01-15T02:02:04;0.90;99.90
10692;DHT22;5396;50.950;6.988;2024-01-15T02:04:31;0.90;99.90
10692;DHT22;5396;50.950;6.988;2024-01-15T02:06:56;0.90;99.90
10692;DHT22;5396;50.950;6.988;2024-01-15T02:09:22;1.00;99.90
10692;DHT22;5396;50.950;6.988;2024-01-15T02:11:47;1.00;99.90
10692;DHT22;5396;50.950;6.988;2024-01-15T02:14:13;1.00;99.90
10692;DHT22;5396;50.950;6.988;2024-01-15T02:16:39;1.00;99.90
10692;DHT22;5396;50.950;6.988;2024-01-15T02:19:05;1.10;99.90
10692;DHT22;5396;50.950;6.988;2024-01-15T02:21:33;1.10;99.90
10692;DHT22;5396;50.950;6.988;2024-01-15T02:23:58;1.10;99.90
10692;DHT22;5396;50.950;6.988;2024-01-15T02:26:24;1.10;99.90
10692;DHT22;5396;50.950;6.988;2024-01-15T02:28:50;1.10;99.90
10692;DHT22;5396;50.950;6.988;2024-01-15T02:31:16;1.10;99.90
10692;DHT22;5396;50.950;6.988;2024-01-15T02:33:42;1.10;99.90
10692;DHT22;5396;50.950;6.988;2024-01-15T02:36:07;1.10;99.90
10692;DHT22;5396;50.950;6.988;2024-01-15T02:38:33;1.10;99.90
10692;DHT22;5396;50.950;6.988;2024-01-15T02:40:59;1.10;99.90
10692;DHT22;5396;50.950;6.988;2024-01-15T02:43:24;1.10;99.90
10692;DHT22;5396;50.950;6.988;2024-01-15T02:45:49;1.10;99.90
10692;DHT22;5396;50.950;6.988;2024-01-15T02:48:15;1.10;99.90
10692;DHT22;5396;50.950;6.988;2024-01-15T02:50:40;1.10;99.90
10692;DHT22;5396;50.950;6.988;2024-01-15T02:53:06;1.20;99.90
10692;DHT22;5396;50.950;6.988;2024-01-15T02:55:31;1.20;99.90
10692;DHT22;5396;50.950;6.988;2024-01-15T02:57:57;1.20;99.90
10692;DHT22;5396;50.950;6.988;2024-01-15T03:00:23;1.20;99.90
10692;DHT22;5396;50.950;6.988;2024-01-15T03:02:49;1.20;99.90
10692;DHT22;5396;50.950;6.988;2024-01-15T03:05:15;1.20;99.90
10692;DHT22;5396;50.950;6.988;2024-01-15T03:07:41;1.20;99.90
10692;DHT22;5396;50.950;6.988;2024-01-15T03:10:07;1.30;99.90
10692;DHT22;5396;50.950;6.988;2024-01-15T03:12:32;1.30;99.90
10692;DHT22;5396;50.950;6.988;2024-01-15T03:14:58;1.20;99.90
10692;DHT22;5396;50.950;6.988;2024-01-15T03:17:23;1.20;99.90
10692;DHT22;5396;50.950;6.988;2024-01-15T03:19:49;1.20;99.90
10692;DHT22;5396;50.950;6.988;2024-01-15T03:22:17;1.20;99.90
10692;DHT22;5396;50.950;6.988;2024-01-15T03:24:43;1.20;99.90
10692;DHT22;5396;50.950;6.988;2024-01-15T03:27:08;1.30;99.90
10692;DHT22;5396;50.950;6.988;2024-01-15T03:29:34;1.30;99.90
10692;DHT22;5396;50.950;6.988;2024-01-15T03:31:59;1.20;99.90
10692;DHT22;5396;50.950;6.988;2024-01-15T03:34:25;1.20;99.90
10692;DHT22;5396;50.950;6.988;2024-01-15T03:36:50;1.20;99.90
10692;DHT22;5396;50.950;6.988;2024-01-15T03:39:16;1.30;99.90
10692;DHT22;5396;50.950;6.988;2024-01-15T03:41:41;1.30;99.90
10692;DHT22;5396;50.950;6.988;2024-01-15T03:44:07;1.30;99.90
10692;DHT22;5396;50.950;6.988;2024-01-15T03:46:32;1.30;99.90
10692;DHT22;5396;50.950;6.988;2024-01-15T03:48:57;1.30;99.90
10692;DHT22;5396;50.950;6.988;2024-01-15T03:51:23;1.30;99.90
10692;DHT22;5396;50.950;6.988;2024-01-15T03:53:48;1.30;99.90
10692;DHT22;5396;50.950;6.988;2024-01-15T03:56:14;1.30;99.90
10692;DHT22;5396;50.950;6.988;2024-01-15T03:58:39;1.40;99.90
10692;DHT22;5396;50.950;6.988;2024-01-15T04:01:11;1.40;99.90
10692;DHT22;5396;50.950;6.988;2024-01-15T04:03:36;1.40;99.90
10692;DHT22;5396;50.950;6.988;2024-01-15T04:06:02;1.40;99.90
10692;DHT22;5396;50.950;6.988;2024-01-15T04:08:28;1.40;99.90
10692;DHT22;5396;50.950;6.988;2024-01-15T04:10:53;1.40;99.90
10692;DHT22;5396;50.950;6.988;2024-01-15T04:13:20;1.40;99.90
10692;DHT22;5396;50.950;6.988;2024-01-15T04:15:45;1.40;99.90
10692;DHT22;5396;50.950;6.988;2024-01-15T04:18:11;1.40;99.90
10692;DHT22;5396;50.950;6.988;2024-01-15T04:20:36;1.40;99.90
10692;DHT22;5396;50.950;6.988;2024-01-15T04:23:02;1.40;99.90
10692;DHT22;5396;50.950;6.988;2024-01-15T04:25:28;1.40;99.90
10692;DHT22;5396;50.950;6.988;2024-01-15T04:27:53;1.40;99.90
10692;DHT22;5396;50.950;6.988;2024-01-15T04:30:19;1.40;99.90
10692;DHT22;5396;50.950;6.988;2024-01-15T04:32:44;1.40;99.90
10692;DHT22;5396;50.950;6.988;2024-01-15T04:35:10;1.40;99.90
10692;DHT22;5396;50.950;6.988;2024-01-15T04:37:35;1.40;99.90
10692;DHT22;5396;50.950;6.988;2024-01-15T04:40:02;1.40;99.90
10692;DHT22;5396;50.950;6.988;2024-01-15T04:42:29;1.40;99.90
10692;DHT22;5396;50.950;6.988;2024-01-15T04:44:54;1.40;99.90
10692;DHT22;5396;50.950;6.988;2024-01-15T04:47:20;1.50;99.90
10692;DHT22;5396;50.950;6.988;2024-01-15T04:49:45;1.50;99.90
10692;DHT22;5396;50.950;6.988;2024-01-15T04:52:11;1.50;99.90
10692;DHT22;5396;50.950;6.988;2024-01-15T04:54:37;1.50;99.90
10692;DHT22;5396;50.950;6.988;2024-01-15T04:57:03;1.50;99.90
10692;DHT22;5396;50.950;6.988;2024-01-15T04:59:28;1.60;99.90
10692;DHT22;5396;50.950;6.988;2024-01-15T05:01:54;1.60;99.90
10692;DHT22;5396;50.950;6.988;2024-01-15T05:04:20;1.60;99.90
10692;DHT22;5396;50.950;6.988;2024-01-15T05:06:45;1.60;99.90
10692;DHT22;5396;50.950;6.988;2024-01-15T05:09:11;1.70;99.90
10692;DHT22;5396;50.950;6.988;2024-01-15T05:11:39;1.70;99.90
10692;DHT22;5396;50.950;6.988;2024-01-15T05:14:04;1.70;99.90
10692;DHT22;5396;50.950;6.988;2024-01-15T05:16:29;1.70;99.90
10692;DHT22;5396;50.950;6.988;2024-01-15T05:18:55;1.70;99.90
10692;DHT22;5396;50.950;6.988;2024-01-15T05:21:20;1.70;99.90
10692;DHT22;5396;50.950;6.988;2024-01-15T05:23:46;1.70;99.90
10692;DHT22;5396;50.950;6.988;2024-01-15T05:26:11;1.60;99.90
10692;DHT22;5396;50.950;6.988;2024-01-15T05:28:37;1.60;99.90
10692;DHT22;5396;50.950;6.988;2024-01-15T05:31:02;1.70;99.90
10692;DHT22;5396;50.950;6.988;2024-01-15T05:33:29;1.70;99.90
10692;DHT22;5396;50.950;6.988;2024-01-15T05:35:55;1.70;99.90
10692;DHT22;5396;50.950;6.988;2024-01-15T05:38:20;1.70;99.90
10692;DHT22;5396;50.950;6.988;2024-01-15T05:40:46;1.70;99.90
10692;DHT22;5396;50.950;6.988;2024-01-15T05:43:11;1.70;99.90
10692;DHT22;5396;50.950;6.988;2024-01-15T05:45:38;1.70;99.90
10692;DHT22;5396;50.950;6.988;2024-01-15T05:48:03;1.80;99.90
10692;DHT22;5396;50.950;6.988;2024-01-15T05:50:29;1.80;99.90
10692;DHT22;5396;50.950;6.988;2024-01-15T05:52:54;1.70;99.90
10692;DHT22;5396;50.950;6.988;2024-01-15T05:55:20;1.60;99.90
10692;DHT22;5396;50.950;6.988;2024-01-15T05:57:45;1.60;99.90
10692;DHT22;5396;50.950;6.988;2024-01-15T06:00:11;1.50;99.90
10692;DHT22;5396;50.950;6.988;2024-01-15T06:02:37;1.50;99.90
10692;DHT22;5396;50.950;6.988;2024-01-15T06:05:03;1.50;99.90
10692;DHT22;5396;50.950;6.988;2024-01-15T06:07:28;1.50;99.90
10692;DHT22;5396;50.950;6.988;2024-01-15T06:09:53;1.50;99.90
10692;DHT22;5396;50.950;6.988;2024-01-15T06:12:19;1.50;99.90
10692;DHT22;5396;50.950;6.988;2024-01-15T06:14:44;1.60;99.90
10692;DHT22;5396;50.950;6.988;2024-01-15T06:17:10;1.60;99.90
10692;DHT22;5396;50.950;6.988;2024-01-15T06:19:36;1.60;99.90
10692;DHT22;5396;50.950;6.988;2024-01-15T06:22:01;1.60;99.90
10692;DHT22;5396;50.950;6.988;2024-01-15T06:24:27;1.60;99.90
10692;DHT22;5396;50.950;6.988;2024-01-15T06:26:52;1.70;99.90
10692;DHT22;5396;50.950;6.988;2024-01-15T06:29:18;1.70;99.90
10692;DHT22;5396;50.950;6.988;2024-01-15T06:31:43;1.70;99.90
10692;DHT22;5396;50.950;6.988;2024-01-15T06:34:09;1.70;99.90
10692;DHT22;5396;50.950;6.988;2024-01-15T06:36:35;1.70;99.90
10692;DHT22;5396;50.950;6.988;2024-01-15T06:39:00;1.70;99.90
10692;DHT22;5396;50.950;6.988;2024-01-15T06:41:26;1.70;99.90
10692;DHT22;5396;50.950;6.988;2024-01-15T06:43:52;1.70;99.90
10692;DHT22;5396;50.950;6.988;2024-01-15T06:46:20;1.80;99.90
10692;DHT22;5396;50.950;6.988;2024-01-15T06:48:46;1.70;99.90
10692;DHT22;5396;50.950;6.988;2024-01-15T06:51:12;1.70;99.90
10692;DHT22;5396;50.950;6.988;2024-01-15T06:53:37;1.80;99.90
10692;DHT22;5396;50.950;6.988;2024-01-15T06:56:03;1.80;99.90
10692;DHT22;5396;50.950;6.988;2024-01-15T06:58:30;1.80;99.90
10692;DHT22;5396;50.950;6.988;2024-01-15T07:00:56;1.80;99.90
10692;DHT22;5396;50.950;6.988;2024-01-15T07:03:21;1.70;99.90
10692;DHT22;5396;50.950;6.988;2024-01-15T07:05:46;1.70;99.90
10692;DHT22;5396;50.950;6.988;2024-01-15T07:08:12;1.70;99.90
10692;DHT22;5396;50.950;6.988;2024-01-15T07:10:37;1.70;99.90
10692;DHT22;5396;50.950;6.988;2024-01-15T07:13:03;1.60;99.90
10692;DHT22;5396;50.950;6.988;2024-01-15T07:15:30;1.70;99.90
10692;DHT22;5396;50.950;6.988;2024-01-15T07:17:56;1.60;99.90
10692;DHT22;5396;50.950;6.988;2024-01-15T07:20:21;1.70;99.90
10692;DHT22;5396;50.950;6.988;2024-01-15T07:22:47;1.80;99.90
10692;DHT22;5396;50.950;6.988;2024-01-15T07:25:12;1.80;99.90
10692;DHT22;5396;50.950;6.988;2024-01-15T07:27:38;1.70;99.90
10692;DHT22;5396;50.950;6.988;2024-01-15T07:30:04;1.70;99.90
10692;DHT22;5396;50.950;6.988;2024-01-15T07:32:30;1.70;99.90
10692;DHT22;5396;50.950;6.988;2024-01-15T07:34:56;1.70;99.90
10692;DHT22;5396;50.950;6.988;2024-01-15T07:37:22;1.70;99.90
10692;DHT22;5396;50.950;6.988;2024-01-15T07:39:48;1.70;99.90
10692;DHT22;5396;50.950;6.988;2024-01-15T07:42:14;1.70;99.90
10692;DHT22;5396;50.950;6.988;2024-01-15T07:44:39;1.70;99.90
10692;DHT22;5396;50.950;6.988;2024-01-15T07:47:05;1.70;99.90
10692;DHT22;5396;50.950;6.988;2024-01-15T07:49:30;1.80;99.90
10692;DHT22;5396;50.950;6.988;2024-01-15T07:51:56;1.80;99.90
10692;DHT22;5396;50.950;6.988;2024-01-15T07:54:21;1.80;99.90
10692;DHT22;5396;50.950;6.988;2024-01-15T07:56:55;1.80;99.90
10692;DHT22;5396;50.950;6.988;2024-01-15T07:59:20;1.90;99.90
10692;DHT22;5396;50.950;6.988;2024-01-15T08:01:46;1.90;99.90
10692;DHT22;5396;50.950;6.988;2024-01-15T08:04:12;1.90;99.90
10692;DHT22;5396;50.950;6.988;2024-01-15T08:06:38;1.90;99.90
10692;DHT22;5396;50.950;6.988;2024-01-15T08:09:04;2.00;99.90
10692;DHT22;5396;50.950;6.988;2024-01-15T08:11:29;2.00;99.90
10692;DHT22;5396;50.950;6.988;2024-01-15T08:13:55;2.00;99.90
10692;DHT22;5396;50.950;6.988;2024-01-15T08:16:21;2.10;99.90
10692;DHT22;5396;50.950;6.988;2024-01-15T08:18:47;2.10;99.90
10692;DHT22;5396;50.950;6.988;2024-01-15T08:21:12;2.10;99.90
10692;DHT22;5396;50.950;6.988;2024-01-15T08:23:38;2.10;99.90
10692;DHT22;5396;50.950;6.988;2024-01-15T08:26:04;2.10;99.90
10692;DHT22;5396;50.950;6.988;2024-01-15T08:28:29;2.20;99.90
10692;DHT22;5396;50.950;6.988;2024-01-15T08:30:56;2.20;99.90
10692;DHT22;5396;50.950;6.988;2024-01-15T08:33:21;2.20;99.90
10692;DHT22;5396;50.950;6.988;2024-01-15T08:35:47;2.10;99.90
10692;DHT22;5396;50.950;6.988;2024-01-15T08:38:13;2.10;99.90
10692;DHT22;5396;50.950;6.988;2024-01-15T08:40:38;2.10;99.90
10692;DHT22;5396;50.950;6.988;2024-01-15T08:43:04;2.10;99.90
10692;DHT22;5396;50.950;6.988;2024-01-15T08:45:32;2.00;99.90
10692;DHT22;5396;50.950;6.988;2024-01-15T08:47:57;2.00;99.90
10692;DHT22;5396;50.950;6.988;2024-01-15T08:50:23;2.00;99.90
10692;DHT22;5396;50.950;6.988;2024-01-15T08:52:48;1.90;99.90
10692;DHT22;5396;50.950;6.988;2024-01-15T08:55:14;1.90;99.90
10692;DHT22;5396;50.950;6.988;2024-01-15T08:57:39;1.90;99.90
10692;DHT22;5396;50.950;6.988;2024-01-15T09:00:05;1.90;99.90
10692;DHT22;5396;50.950;6.988;2024-01-15T09:02:34;1.90;99.90
10692;DHT22;5396;50.950;6.988;2024-01-15T09:05:00;1.90;99.90
10692;DHT22;5396;50.950;6.988;2024-01-15T09:07:25;1.90;99.90
10692;DHT22;5396;50.950;6.988;2024-01-15T09:09:52;1.90;99.90
10692;DHT22;5396;50.950;6.988;2024-01-15T09:12:18;1.90;99.90
10692;DHT22;5396;50.950;6.988;2024-01-15T09:14:44;1.90;99.90
10692;DHT22;5396;50.950;6.988;2024-01-15T09:17:09;1.90;99.90
10692;DHT22;5396;50.950;6.988;2024-01-15T09:19:35;1.90;99.90
10692;DHT22;5396;50.950;6.988;2024-01-15T09:22:00;1.80;99.90
10692;DHT22;5396;50.950;6.988;2024-01-15T09:24:26;1.80;99.90
10692;DHT22;5396;50.950;6.988;2024-01-15T09:26:51;1.80;99.90
10692;DHT22;5396;50.950;6.988;2024-01-15T09:29:17;1.70;99.90
10692;DHT22;5396;50.950;6.988;2024-01-15T09:31:43;1.70;99.90
10692;DHT22;5396;50.950;6.988;2024-01-15T09:34:09;1.60;99.90
10692;DHT22;5396;50.950;6.988;2024-01-15T09:36:41;1.60;99.90
10692;DHT22;5396;50.950;6.988;2024-01-15T09:39:08;1.60;99.90
10692;DHT22;5396;50.950;6.988;2024-01-15T09:41:34;1.50;99.90
10692;DHT22;5396;50.950;6.988;2024-01-15T09:44:00;1.50;99.90
10692;DHT22;5396;50.950;6.988;2024-01-15T09:46:25;1.50;99.90
10692;DHT22;5396;50.950;6.988;2024-01-15T09:48:51;1.50;99.90
10692;DHT22;5396;50.950;6.988;2024-01-15T09:51:16;1.40;99.90
10692;DHT22;5396;50.950;6.988;2024-01-15T09:53:42;1.30;99.90
10692;DHT22;5396;50.950;6.988;2024-01-15T09:56:08;1.30;99.90
10692;DHT22;5396;50.950;6.988;2024-01-15T09:58:35;1.20;99.90
10692;DHT22;5396;50.950;6.988;2024-01-15T10:01:01;1.20;99.90
10692;DHT22;5396;50.950;6.988;2024-01-15T10:03:28;1.20;99.90
10692;DHT22;5396;50.950;6.988;2024-01-15T10:05:54;1.20;99.90
10692;DHT22;5396;50.950;6.988;2024-01-15T10:08:19;1.20;99.90
10692;DHT22;5396;50.950;6.988;2024-01-15T10:10:45;1.20;99.90
10692;DHT22;5396;50.950;6.988;2024-01-15T10:13:10;1.30;99.90
10692;DHT22;5396;50.950;6.988;2024-01-15T10:15:37;1.30;99.90
10692;DHT22;5396;50.950;6.988;2024-01-15T10:18:05;1.30;99.90
10692;DHT22;5396;50.950;6.988;2024-01-15T10:20:33;1.30;99.90
10692;DHT22;5396;50.950;6.988;2024-01-15T10:22:59;1.40;99.90
10692;DHT22;5396;50.950;6.988;2024-01-15T10:25:24;1.40;99.90
10692;DHT22;5396;50.950;6.988;2024-01-15T10:28:00;1.30;99.90
10692;DHT22;5396;50.950;6.988;2024-01-15T10:30:26;1.20;99.90
10692;DHT22;5396;50.950;6.988;2024-01-15T10:32:58;1.20;99.90
10692;DHT22;5396;50.950;6.988;2024-01-15T10:35:29;1.10;99.90
10692;DHT22;5396;50.950;6.988;2024-01-15T10:37:54;1.10;99.90
10692;DHT22;5396;50.950;6.988;2024-01-15T10:40:20;1.20;99.90
10692;DHT22;5396;50.950;6.988;2024-01-15T10:42:45;1.30;99.90
10692;DHT22;5396;50.950;6.988;2024-01-15T10:45:13;1.30;99.90
10692;DHT22;5396;50.950;6.988;2024-01-15T10:47:38;1.30;99.90
10692;DHT22;5396;50.950;6.988;2024-01-15T10:50:04;1.30;99.90
10692;DHT22;5396;50.950;6.988;2024-01-15T10:52:31;1.30;99.90
10692;DHT22;5396;50.950;6.988;2024-01-15T10:54:57;1.20;99.90
10692;DHT22;5396;50.950;6.988;2024-01-15T10:57:23;1.10;99.90
10692;DHT22;5396;50.950;6.988;2024-01-15T10:59:49;1.00;99.90
10692;DHT22;5396;50.950;6.988;2024-01-15T11:02:14;0.90;99.90
10692;DHT22;5396;50.950;6.988;2024-01-15T11:04:40;0.90;99.90
10692;DHT22;5396;50.950;6.988;2024-01-15T11:07:06;0.90;99.90
10692;DHT22;5396;50.950;6.988;2024-01-15T11:09:31;0.90;99.90
10692;DHT22;5396;50.950;6.988;2024-01-15T11:12:07;1.00;99.90
10692;DHT22;5396;50.950;6.988;2024-01-15T11:17:01;1.00;99.90
10692;DHT22;5396;50.950;6.988;2024-01-15T11:19:36;1.00;99.90
10692;DHT22;5396;50.950;6.988;2024-01-15T11:22:03;1.10;99.90
10692;DHT22;5396;50.950;6.988;2024-01-15T11:24:38;1.20;99.90
10692;DHT22;5396;50.950;6.988;2024-01-15T11:27:04;1.20;99.90
10692;DHT22;5396;50.950;6.988;2024-01-15T11:29:30;1.30;99.90
10692;DHT22;5396;50.950;6.988;2024-01-15T11:37:10;1.50;99.90
10692;DHT22;5396;50.950;6.988;2024-01-15T11:39:41;1.50;99.90
10692;DHT22;5396;50.950;6.988;2024-01-15T11:42:09;1.60;99.90
10692;DHT22;5396;50.950;6.988;2024-01-15T11:44:34;1.60;99.90
10692;DHT22;5396;50.950;6.988;2024-01-15T11:47:01;1.70;99.90
10692;DHT22;5396;50.950;6.988;2024-01-15T11:51:55;1.60;99.90
10692;DHT22;5396;50.950;6.988;2024-01-15T11:54:22;1.70;99.90
10692;DHT22;5396;50.950;6.988;2024-01-15T11:56:49;1.70;99.90
10692;DHT22;5396;50.950;6.988;2024-01-15T11:59:14;1.70;99.90
10692;DHT22;5396;50.950;6.988;2024-01-15T12:01:40;1.80;99.90
10692;DHT22;5396;50.950;6.988;2024-01-15T12:04:06;1.80;99.90
10692;DHT22;5396;50.950;6.988;2024-01-15T12:06:31;1.80;99.90
10692;DHT22;5396;50.950;6.988;2024-01-15T12:09:06;1.70;99.90
10692;DHT22;5396;50.950;6.988;2024-01-15T12:11:32;1.70;99.90
10692;DHT22;5396;50.950;6.988;2024-01-15T12:13:59;1.70;99.90
10692;DHT22;5396;50.950;6.988;2024-01-15T12:16:25;1.70;99.90
10692;DHT22;5396;50.950;6.988;2024-01-15T12:18:50;1.70;99.90
10692;DHT22;5396;50.950;6.988;2024-01-15T12:21:16;1.70;99.90
10692;DHT22;5396;50.950;6.988;2024-01-15T12:23:41;1.70;99.90
10692;DHT22;5396;50.950;6.988;2024-01-15T12:26:07;1.80;99.90
10692;DHT22;5396;50.950;6.988;2024-01-15T12:28:32;1.90;99.90
10692;DHT22;5396;50.950;6.988;2024-01-15T12:30:58;2.10;99.90
10692;DHT22;5396;50.950;6.988;2024-01-15T12:33:25;2.20;99.90
10692;DHT22;5396;50.950;6.988;2024-01-15T12:35:53;2.20;99.90
10692;DHT22;5396;50.950;6.988;2024-01-15T12:38:19;2.30;99.90
10692;DHT22;5396;50.950;6.988;2024-01-15T12:40:45;2.30;99.90
10692;DHT22;5396;50.950;6.988;2024-01-15T12:43:11;2.30;99.90
10692;DHT22;5396;50.950;6.988;2024-01-15T12:45:37;2.30;99.90
10692;DHT22;5396;50.950;6.988;2024-01-15T12:48:05;2.30;99.90
10692;DHT22;5396;50.950;6.988;2024-01-15T12:50:31;2.30;99.90
10692;DHT22;5396;50.950;6.988;2024-01-15T12:52:58;2.30;99.90
10692;DHT22;5396;50.950;6.988;2024-01-15T12:55:24;2.30;99.90
10692;DHT22;5396;50.950;6.988;2024-01-15T12:57:50;2.30;99.90
10692;DHT22;5396;50.950;6.988;2024-01-15T13:00:19;2.30;99.90
10692;DHT22;5396;50.950;6.988;2024-01-15T13:02:45;2.40;99.90
10692;DHT22;5396;50.950;6.988;2024-01-15T13:05:10;2.50;99.90
10692;DHT22;5396;50.950;6.988;2024-01-15T13:07:36;2.50;99.90
10692;DHT22;5396;50.950;6.988;2024-01-15T13:10:02;2.50;99.90
10692;DHT22;5396;50.950;6.988;2024-01-15T13:12:28;2.50;99.90
10692;DHT22;5396;50.950;6.988;2024-01-15T13:14:53;2.50;99.90
10692;DHT22;5396;50.950;6.988;2024-01-15T13:17:19;2.50;99.90
10692;DHT22;5396;50.950;6.988;2024-01-15T13:19:46;2.50;99.90
10692;DHT22;5396;50.950;6.988;2024-01-15T13:22:11;2.40;99.90
10692;DHT22;5396;50.950;6.988;2024-01-15T13:24:39;2.40;99.90
10692;DHT22;5396;50.950;6.988;2024-01-15T13:27:05;2.40;99.90
10692;DHT22;5396;50.950;6.988;2024-01-15T13:29:31;2.40;99.90
10692;DHT22;5396;50.950;6.988;2024-01-15T13:31:57;2.40;99.90
10692;DHT22;5396;50.950;6.988;2024-01-15T13:34:22;2.40;99.90
10692;DHT22;5396;50.950;6.988;2024-01-15T13:36:48;2.40;99.90
10692;DHT22;5396;50.950;6.988;2024-01-15T13:39:15;2.40;99.90
10692;DHT22;5396;50.950;6.988;2024-01-15T13:41:45;2.30;99.90
10692;DHT22;5396;50.950;6.988;2024-01-15T13:44:11;2.30;99.90
10692;DHT22;5396;50.950;6.988;2024-01-15T13:46:36;2.20;99.90
10692;DHT22;5396;50.950;6.988;2024-01-15T13:49:03;2.20;99.90
10692;DHT22;5396;50.950;6.988;2024-01-15T13:51:31;2.20;99.90
10692;DHT22;5396;50.950;6.988;2024-01-15T13:53:56;2.10;99.90
10692;DHT22;5396;50.950;6.988;2024-01-15T13:56:22;2.10;99.90
10692;DHT22;5396;50.950;6.988;2024-01-15T13:58:47;2.20;99.90
10692;DHT22;5396;50.950;6.988;2024-01-15T14:01:13;2.20;99.90
10692;DHT22;5396;50.950;6.988;2024-01-15T14:03:39;2.20;99.90
10692;DHT22;5396;50.950;6.988;2024-01-15T14:06:04;2.20;99.90
10692;DHT22;5396;50.950;6.988;2024-01-15T14:08:37;2.20;99.90
10692;DHT22;5396;50.950;6.988;2024-01-15T14:11:03;2.10;99.90
10692;DHT22;5396;50.950;6.988;2024-01-15T14:13:28;1.90;99.90
10692;DHT22;5396;50.950;6.988;2024-01-15T14:15:54;1.80;99.90
10692;DHT22;5396;50.950;6.988;2024-01-15T14:18:21;1.70;99.90
10692;DHT22;5396;50.950;6.988;2024-01-15T14:20:46;1.70;99.90
10692;DHT22;5396;50.950;6.988;2024-01-15T14:23:12;1.70;99.90
10692;DHT22;5396;50.950;6.988;2024-01-15T14:25:38;1.70;99.90
10692;DHT22;5396;50.950;6.988;2024-01-15T14:28:04;1.70;99.90
10692;DHT22;5396;50.950;6.988;2024-01-15T14:30:30;1.70;99.90
10692;DHT22;5396;50.950;6.988;2024-01-15T14:32:55;1.70;99.90
10692;DHT22;5396;50.950;6.988;2024-01-15T14:35:21;1.80;99.90
10692;DHT22;5396;50.950;6.988;2024-01-15T14:37:46;1.80;99.90
10692;DHT22;5396;50.950;6.988;2024-01-15T14:40:13;1.80;99.90
10692;DHT22;5396;50.950;6.988;2024-01-15T14:42:41;1.90;99.90
10692;DHT22;5396;50.950;6.988;2024-01-15T14:45:07;1.90;99.90
10692;DHT22;5396;50.950;6.988;2024-01-15T14:47:38;1.90;99.90
10692;DHT22;5396;50.950;6.988;2024-01-15T14:50:05;1.90;99.90
10692;DHT22;5396;50.950;6.988;2024-01-15T14:52:31;1.90;99.90
10692;DHT22;5396;50.950;6.988;2024-01-15T14:54:56;1.80;99.90
10692;DHT22;5396;50.950;6.988;2024-01-15T14:57:22;1.80;99.90
10692;DHT22;5396;50.950;6.988;2024-01-15T14:59:48;1.80;99.90
10692;DHT22;5396;50.950;6.988;2024-01-15T15:02:13;1.80;99.90
10692;DHT22;5396;50.950;6.988;2024-01-15T15:04:40;1.80;99.90
10692;DHT22;5396;50.950;6.988;2024-01-15T15:07:07;1.80;99.90
10692;DHT22;5396;50.950;6.988;2024-01-15T15:09:32;1.80;99.90
10692;DHT22;5396;50.950;6.988;2024-01-15T15:11:57;1.80;99.90
10692;DHT22;5396;50.950;6.988;2024-01-15T15:14:23;1.80;99.90
10692;DHT22;5396;50.950;6.988;2024-01-15T15:16:48;1.80;99.90
10692;DHT22;5396;50.950;6.988;2024-01-15T15:19:14;1.80;99.90
10692;DHT22;5396;50.950;6.988;2024-01-15T15:21:40;1.80;99.90
10692;DHT22;5396;50.950;6.988;2024-01-15T15:24:05;1.70;99.90
10692;DHT22;5396;50.950;6.988;2024-01-15T15:26:32;1.80;99.90
10692;DHT22;5396;50.950;6.988;2024-01-15T15:28:57;1.80;99.90
10692;DHT22;5396;50.950;6.988;2024-01-15T15:31:23;1.80;99.90
10692;DHT22;5396;50.950;6.988;2024-01-15T15:33:49;1.80;99.90
10692;DHT22;5396;50.950;6.988;2024-01-15T15:36:14;1.80;99.90
10692;DHT22;5396;50.950;6.988;2024-01-15T15:38:40;1.80;99.90
10692;DHT22;5396;50.950;6.988;2024-01-15T15:41:05;1.70;99.90
10692;DHT22;5396;50.950;6.988;2024-01-15T15:43:31;1.70;99.90
10692;DHT22;5396;50.950;6.988;2024-01-15T15:45:56;1.70;99.90
10692;DHT22;5396;50.950;6.988;2024-01-15T15:48:25;1.70;99.90
10692;DHT22;5396;50.950;6.988;2024-01-15T15:50:50;1.60;99.90
10692;DHT22;5396;50.950;6.988;2024-01-15T15:53:16;1.40;99.90
10692;DHT22;5396;50.950;6.988;2024-01-15T15:55:42;1.30;99.90
10692;DHT22;5396;50.950;6.988;2024-01-15T15:58:09;1.20;99.90
10692;DHT22;5396;50.950;6.988;2024-01-15T16:00:34;1.20;99.90
10692;DHT22;5396;50.950;6.988;2024-01-15T16:03:00;1.20;99.90